Latest Weather Observations for Jandakot

IDW60901

Issued at 9:01 pm WST Monday 30 March 2015 (issued every 10 minutes, with the page automatically refreshed every 10 minutes)

About weather observations | Map of Perth area stations | Latest observations for Perth area | Other Formats
Station Details ID: 009172 Name: JANDAKOT AERO Lat: -32.10 Lon: 115.88 Height: 30.0 m
Data from the previous 72 hours. | See also: Recent months at Jandakot
Date/Time
WST
Tmp

°C
App
Tmp
°C
Dew
Point
°C
Rel
Hum
%
Delta-T

°C
Wind Press
QNH
hPa
Press
MSL
hPa
Rain
since
9 am
mm
Dir
 
Spd
km/h
Gust
km/h
Spd
kts
Gust
kts
30/09:00pm 19.8 20.9 17.2 85 1.6 SSW 7 9 4 5 1018.3 1018.2 0.0
30/08:30pm 20.1 21.2 17.0 82 1.9 S 7 9 4 5 1018.4 1018.3 0.0
30/08:00pm 20.3 21.6 17.2 82 1.9 WSW 6 7 3 4 1018.3 1018.2 0.0
30/07:30pm 20.5 21.2 17.1 81 2.1 WSW 9 11 5 6 1017.7 1017.6 0.0
30/07:00pm 20.7 21.3 16.7 78 2.4 SW 9 13 5 7 1017.0 1016.9 0.0
30/06:30pm 21.0 21.1 16.4 75 2.8 SSW 11 15 6 8 1016.6 1016.5 0.0
30/06:00pm 21.4 21.4 16.3 72 3.1 SSW 11 19 6 10 1016.6 1016.5 0.0
30/05:30pm 21.7 21.1 16.6 73 3.1 SSW 15 22 8 12 1016.3 1016.2 0.0
30/05:00pm 22.2 22.0 16.8 71 3.3 SW 13 17 7 9 1016.2 1016.1 0.0
30/04:30pm 22.6 22.6 16.3 67 3.8 SW 11 17 6 9 1016.1 1016.0 0.0
30/04:00pm 23.0 20.8 14.9 60 4.8 WSW 20 26 11 14 1015.7 1015.6 0.0
30/03:30pm 23.6 22.1 15.3 59 5.0 WSW 17 22 9 12 1015.6 1015.5 0.0
30/03:00pm 23.8 21.8 13.9 54 5.8 WSW 17 20 9 11 1015.6 1015.5 0.0
30/02:30pm 24.5 22.4 14.8 54 5.8 WSW 19 24 10 13 1015.2 1015.1 0.0
30/02:00pm 24.6 22.4 14.3 52 6.1 WSW 19 24 10 13 1015.1 1015.0 0.0
30/01:30pm 24.5 22.8 16.3 60 5.0 WSW 20 28 11 15 1015.3 1015.2 0.0
30/01:00pm 25.0 22.7 14.0 50 6.5 W 19 22 10 12 1015.3 1015.2 0.0
30/12:30pm 26.3 24.6 12.3 41 8.1 W 13 19 7 10 1015.3 1015.2 0.0
30/12:00pm 26.2 24.5 12.6 43 7.9 W 13 17 7 9 1015.5 1015.4 0.0
30/11:30am 26.9 25.6 9.3 33 9.7 NNW 6 9 3 5 1015.7 1015.6 0.0
30/11:00am 27.0 25.1 9.2 32 9.8 N 9 13 5 7 1016.1 1016.0 0.0
30/10:30am 26.3 23.6 7.2 29 10.1 NW 11 15 6 8 1016.5 1016.4 0.0
30/10:00am 26.0 24.1 9.2 34 9.2 NNW 9 13 5 7 1016.7 1016.6 0.0
30/09:30am 25.3 23.0 9.1 35 8.8 NE 11 15 6 8 1016.7 1016.6 0.0
30/08:30am 22.3 20.8 10.4 47 6.5 ENE 9 11 5 6 1016.4 1016.3 0.0
30/08:00am 20.5 19.4 10.6 53 5.4 NE 7 11 4 6 1016.6 1016.5 0.0
30/07:30am 18.0 16.9 10.5 61 4.0 E 7 11 4 6 1016.2 1016.1 0.0
30/07:00am 13.7 12.2 10.6 81 1.6 SE 9 15 5 8 1016.0 1015.9 0.0
30/06:30am 12.0 10.6 9.6 85 1.2 S 7 9 4 5 1016.1 1016.0 0.0
30/05:30am 13.1 11.9 10.4 84 1.4 SE 7 9 4 5 1015.8 1015.7 0.0
30/05:00am 13.0 11.4 10.3 84 1.4 SE 9 11 5 6 1015.7 1015.6 0.0
30/04:30am 12.0 10.6 9.6 85 1.2 S 7 9 4 5 1015.4 1015.3 0.0
30/04:00am 13.3 12.2 10.6 84 1.4 SSW 7 9 4 5 1015.3 1015.2 0.0
30/03:30am 13.5 12.0 10.6 82 1.5 SSW 9 13 5 7 1015.3 1015.2 0.0
30/03:00am 12.5 10.8 10.0 85 1.3 SSE 9 11 5 6 1015.4 1015.3 0.0
30/02:30am 13.2 11.9 10.1 81 1.6 S 7 7 4 4 1015.7 1015.6 0.0
30/02:00am 13.8 12.7 10.8 82 1.6 SE 7 9 4 5 1016.1 1016.0 0.0
30/01:30am 13.0 12.3 10.1 82 1.5 SE 4 9 2 5 1016.4 1016.3 0.0
30/01:00am 13.8 13.9 10.3 79 1.8 CALM 0 0 0 0 1016.7 1016.6 0.0
30/12:30am 14.5 14.9 11.1 80 1.8 CALM 0 0 0 0 1016.9 1016.8 0.0
30/12:00am 14.7 13.9 10.9 78 2.0 S 6 9 3 5 1017.2 1017.1 0.0
 
Date/Time
WST
Tmp

°C
App
Tmp
°C
Dew
Point
°C
Rel
Hum
%
Delta-T

°C
Wind Press
QNH
hPa
Press
MSL
hPa
Rain
since
9 am
mm
Dir
 
Spd
km/h
Gust
km/h
Spd
kts
Gust
kts
29/11:30pm 16.3 15.7 11.7 74 2.5 S 6 7 3 4 1017.3 1017.2 0.0
29/11:00pm 17.3 16.7 11.8 70 3.0 S 6 9 3 5 1017.3 1017.2 0.0
29/10:30pm 18.7 17.6 12.0 65 3.7 SSW 9 11 5 6 1017.5 1017.4 0.0
29/10:00pm 18.9 17.9 12.2 65 3.7 SSW 9 11 5 6 1017.7 1017.6 0.0
29/09:30pm 19.9 18.1 12.2 61 4.3 SSW 13 17 7 9 1017.9 1017.8 0.0
29/09:00pm 20.3 18.6 12.5 61 4.4 S 13 19 7 10 1017.9 1017.8 0.0
29/08:30pm 20.6 19.1 13.0 61 4.3 S 13 15 7 8 1018.0 1017.9 0.0
29/08:00pm 21.0 19.5 13.1 60 4.5 S 13 17 7 9 1017.8 1017.7 0.0
29/07:30pm 21.5 20.1 13.3 59 4.7 S 13 17 7 9 1017.8 1017.7 0.0
29/07:00pm 22.3 20.7 12.8 55 5.4 SSW 13 17 7 9 1017.8 1017.7 0.0
29/06:30pm 23.2 21.5 13.6 54 5.6 SSW 15 20 8 11 1017.6 1017.5 0.0
29/06:00pm 24.6 22.2 12.8 47 6.8 SSW 17 22 9 12 1017.4 1017.3 0.0
29/05:30pm 26.1 23.7 12.6 43 7.8 SW 17 24 9 13 1017.3 1017.2 0.0
29/05:00pm 27.4 24.9 12.4 39 8.7 SW 17 24 9 13 1017.2 1017.1 0.0
29/04:30pm 27.8 24.4 10.4 33 9.8 SW 19 24 10 13 1017.2 1017.1 0.0
29/04:00pm 28.3 24.2 8.6 29 10.8 SW 20 26 11 14 1017.1 1017.0 0.0
29/03:30pm 29.0 24.5 8.6 28 11.2 WSW 22 28 12 15 1017.0 1016.9 0.0
29/03:00pm 29.7 25.8 9.5 28 11.3 WSW 20 26 11 14 1017.0 1016.9 0.0
29/02:30pm 29.8 25.5 9.4 28 11.4 W 22 28 12 15 1017.3 1017.2 0.0
29/02:00pm 29.8 25.7 10.2 29 11.1 WSW 22 28 12 15 1017.6 1017.5 0.0
29/01:30pm 29.4 26.1 10.8 31 10.6 W 19 24 10 13 1017.9 1017.8 0.0
29/01:00pm 29.7 26.4 9.5 28 11.3 W 17 26 9 14 1018.3 1018.2 0.0
29/12:30pm 28.9 27.2 11.1 33 10.2 WSW 11 17 6 9 1018.7 1018.6 0.0
29/12:00pm 29.7 28.4 9.8 29 11.2 NW 7 13 4 7 1019.1 1019.0 0.0
29/11:30am 28.7 27.1 8.9 29 10.9 NNW 7 13 4 7 1019.5 1019.4 0.0
29/11:00am 28.1 27.2 11.5 35 9.5 NNE 7 15 4 8 1020.0 1019.9 0.0
29/10:30am 26.8 25.1 11.3 38 8.8 ENE 11 17 6 9 1020.4 1020.3 0.0
29/10:00am 25.8 23.7 11.3 40 8.2 ENE 13 17 7 9 1020.7 1020.6 0.0
29/09:30am 24.1 23.7 13.0 50 6.4 E 7 11 4 6 1020.8 1020.7 0.0
29/09:00am 22.1 21.4 13.2 57 5.1 E 9 11 5 6 1020.8 1020.7 0.0
29/08:30am 20.9 20.3 13.4 62 4.3 E 9 11 5 6 1020.8 1020.7 0.0
29/08:00am 18.9 18.7 13.0 68 3.3 E 6 9 3 5 1020.9 1020.8 0.0
29/07:30am 17.4 16.5 12.7 74 2.6 E 9 11 5 6 1020.6 1020.5 0.0
29/07:00am 15.5 14.4 11.8 78 2.0 E 9 11 5 6 1020.4 1020.3 0.0
29/06:30am 14.6 12.9 11.2 80 1.8 E 11 13 6 7 1020.1 1020.0 0.0
29/06:00am 15.3 13.9 11.0 75 2.3 E 9 13 5 7 1020.0 1019.9 0.0
29/05:30am 15.0 12.9 11.0 77 2.1 ESE 13 15 7 8 1019.8 1019.7 0.0
29/05:00am 14.6 11.4 11.4 81 1.7 ESE 19 24 10 13 1019.6 1019.5 0.0
29/04:30am 12.2 11.3 11.4 95 0.4 ESE 7 9 4 5 1019.6 1019.5 0.0
29/04:00am 12.2 10.9 11.4 95 0.4 SE 9 13 5 7 1019.8 1019.7 0.0
29/03:30am 11.2 9.9 10.0 92 0.6 S 7 7 4 4 1019.9 1019.8 0.0
29/03:00am 11.6 10.7 10.6 94 0.5 S 6 7 3 4 1020.1 1020.0 0.0
29/02:30am 11.7 12.0 10.9 95 0.4 CALM 0 0 0 0 1019.9 1019.8 0.0
29/02:00am 11.7 11.9 10.7 94 0.5 CALM 0 0 0 0 1020.0 1019.9 0.0
29/01:30am 12.5 11.8 11.4 93 0.6 SSW 6 9 3 5 1020.1 1020.0 0.0
29/01:00am 12.7 13.1 11.4 92 0.7 CALM 0 0 0 0 1020.1 1020.0 0.0
29/12:30am 13.4 14.1 12.1 92 0.7 CALM 0 0 0 0 1020.2 1020.1 0.0
29/12:00am 14.2 15.0 12.7 91 0.8 CALM 0 0 0 0 1020.3 1020.2 0.0
 
Date/Time
WST
Tmp

°C
App
Tmp
°C
Dew
Point
°C
Rel
Hum
%
Delta-T

°C
Wind Press
QNH
hPa
Press
MSL
hPa
Rain
since
9 am
mm
Dir
 
Spd
km/h
Gust
km/h
Spd
kts
Gust
kts
28/11:30pm 15.5 15.2 13.2 86 1.3 SSW 7 9 4 5 1020.2 1020.1 0.0
28/11:00pm 16.8 16.4 14.2 85 1.5 S 9 11 5 6 1020.4 1020.3 0.0
28/10:30pm 17.2 16.4 14.0 81 1.8 SSW 11 13 6 7 1020.5 1020.4 0.0
28/10:00pm 17.6 17.2 14.1 80 2.0 S 9 11 5 6 1020.7 1020.6 0.0
28/09:30pm 18.2 17.5 14.2 77 2.3 S 11 15 6 8 1020.8 1020.7 0.0
28/09:00pm 18.6 17.4 14.1 75 2.6 S 13 17 7 9 1020.7 1020.6 0.0
28/08:30pm 18.9 17.8 14.4 75 2.6 S 13 17 7 9 1020.7 1020.6 0.0
28/08:00pm 19.2 18.7 14.9 76 2.5 S 11 13 6 7 1020.4 1020.3 0.0
28/07:30pm 19.6 18.8 15.2 76 2.6 SSW 13 17 7 9 1020.0 1019.9 0.0
28/07:00pm 20.1 19.1 14.6 70 3.2 SSW 13 17 7 9 1019.8 1019.7 0.0
28/06:30pm 20.6 19.3 13.8 65 3.9 SSW 13 20 7 11 1019.6 1019.5 0.0
28/06:00pm 21.5 18.7 12.7 57 5.0 SSW 19 26 10 14 1019.2 1019.1 0.0
28/05:30pm 22.2 18.7 12.3 53 5.6 SW 22 33 12 18 1019.1 1019.0 0.0
28/05:00pm 23.2 20.0 11.8 48 6.4 SW 20 30 11 16 1019.0 1018.9 0.0
28/04:30pm 24.0 20.4 12.0 47 6.8 SW 22 32 12 17 1018.8 1018.7 0.0
28/04:00pm 24.3 20.7 11.7 45 7.1 WSW 22 32 12 17 1018.8 1018.7 0.0
28/03:30pm 24.5 20.6 12.0 45 7.1 WSW 24 35 13 19 1018.8 1018.7 0.0
28/03:00pm 24.3 20.1 12.4 47 6.8 WSW 26 35 14 19 1018.8 1018.7 0.0
28/02:30pm 24.9 20.8 12.8 47 7.0 SW 26 32 14 17 1019.1 1019.0 0.0
28/02:00pm 25.7 22.1 13.2 46 7.3 WSW 24 30 13 16 1019.2 1019.1 0.0
28/01:30pm 25.3 21.8 13.3 47 7.0 WSW 24 32 13 17 1019.5 1019.4 0.0
28/01:00pm 25.0 22.0 13.8 49 6.6 WSW 22 30 12 16 1019.7 1019.6 0.0
28/12:30pm 25.5 22.5 13.6 47 7.0 W 22 28 12 15 1020.0 1019.9 0.0
28/12:00pm 25.1 23.1 12.6 45 7.2 W 15 24 8 13 1020.3 1020.2 0.0
28/11:30am 25.3 24.0 11.3 41 7.9 SSW 9 17 5 9 1020.9 1020.8 0.0
28/11:00am 23.9 22.8 12.1 47 6.7 WSW 9 13 5 7 1021.0 1020.9 0.0
28/10:30am 23.2 22.8 12.9 52 5.9 SSW 7 15 4 8 1021.4 1021.3 0.0
28/10:00am 22.2 21.0 12.9 55 5.3 S 11 17 6 9 1021.6 1021.5 0.0
28/09:30am 21.1 20.7 14.2 64 4.0 S 9 13 5 7 1021.6 1021.5 0.0
28/09:00am 19.4 19.0 14.0 71 3.1 S 9 15 5 8 1021.7 1021.6 0.0
28/08:30am 18.0 17.2 14.0 77 2.3 S 11 15 6 8 1021.5 1021.4 0.0
28/08:00am 16.4 16.0 13.0 80 1.9 SE 7 11 4 6 1021.5 1021.4 0.0
28/07:30am 13.9 13.6 12.8 93 0.6 SSE 6 7 3 4 1021.3 1021.2 0.0
28/07:00am 11.3 10.2 10.1 92 0.6 SSE 6 7 3 4 1021.1 1021.0 0.0
28/06:30am 10.5 10.1 9.7 95 0.4 S 2 6 1 3 1020.7 1020.6 0.0
28/06:00am 10.2 8.7 9.0 92 0.6 S 7 9 4 5 1020.6 1020.5 0.0
28/05:30am 10.8 9.7 9.8 93 0.5 SE 6 7 3 4 1020.2 1020.1 0.0
28/05:00am 10.8 9.6 9.4 91 0.7 S 6 7 3 4 1019.8 1019.7 0.0
28/04:30am 11.5 11.6 10.1 91 0.7 CALM 0 0 0 0 1019.5 1019.4 0.0
28/04:00am 11.7 10.5 10.3 91 0.7 SE 7 9 4 5 1019.4 1019.3 0.0
28/03:30am 11.7 10.4 9.9 89 0.9 SE 7 9 4 5 1019.3 1019.2 0.0
28/03:00am 13.0 12.0 11.1 88 1.0 SE 7 7 4 4 1019.2 1019.1 0.0
28/02:30am 13.7 12.4 11.2 85 1.3 ESE 9 11 5 6 1019.2 1019.1 0.0
28/02:00am 14.7 14.2 11.9 83 1.5 E 6 9 3 5 1019.4 1019.3 0.0
28/01:30am 14.6 14.1 12.0 84 1.4 ESE 6 7 3 4 1019.5 1019.4 0.0
28/01:00am 13.9 12.4 12.0 88 1.0 ESE 11 13 6 7 1019.6 1019.5 0.0
28/12:30am 14.6 14.3 13.3 92 0.7 SSE 7 9 4 5 1019.7 1019.6 0.0
28/12:00am 14.5 14.3 12.9 90 0.9 SE 6 7 3 4 1019.6 1019.5 0.0
 
Date/Time
WST
Tmp

°C
App
Tmp
°C
Dew
Point
°C
Rel
Hum
%
Delta-T

°C
Wind Press
QNH
hPa
Press
MSL
hPa
Rain
since
9 am
mm
Dir
 
Spd
km/h
Gust
km/h
Spd
kts
Gust
kts
27/11:30pm 15.6 15.6 13.6 88 1.1 SE 6 7 3 4 1019.6 1019.5 0.0
27/11:00pm 16.1 15.5 13.6 85 1.4 S 9 13 5 7 1019.9 1019.8 0.0
27/10:30pm 17.1 16.8 14.3 83 1.6 S 9 11 5 6 1020.1 1020.0 0.0
27/10:00pm 18.3 18.1 14.7 79 2.1 S 9 13 5 7 1020.3 1020.2 0.0
27/09:30pm 19.0 18.4 14.7 76 2.5 S 11 13 6 7 1020.4 1020.3 0.0

Latest Capital City Observations: Canberra | Sydney | Melbourne | Brisbane | Adelaide | Perth | Hobart | Darwin

Other Formats:

Comma delimited format used in spreadsheet applications
http://www.bom.gov.au/fwo/IDW60901/IDW60901.94609.axf

JavaScript Object Notation format (JSON) in row-major order
http://www.bom.gov.au/fwo/IDW60901/IDW60901.94609.json